createdAt,value
2022-09-29T00:04:03.824Z,99635.34
2022-09-29T00:09:06.885Z,99637.00
2022-09-29T00:14:09.601Z,99634.97
2022-09-29T00:19:13.685Z,99641.44
2022-09-29T00:24:16.533Z,99641.94
2022-09-29T00:29:19.378Z,99644.44
2022-09-29T00:34:23.470Z,99646.84
2022-09-29T00:39:26.529Z,99643.13
2022-09-29T00:44:57.107Z,99645.72
2022-09-29T00:50:05.692Z,99642.84
2022-09-29T00:55:13.866Z,99641.78
2022-09-29T01:00:17.656Z,99642.53
2022-09-29T01:05:24.835Z,99645.88
2022-09-29T01:10:27.731Z,99643.09
2022-09-29T01:15:31.305Z,99653.50
2022-09-29T01:20:42.854Z,99657.78
2022-09-29T01:26:23.859Z,99663.91
2022-09-29T01:31:35.869Z,99658.59
2022-09-29T01:36:51.566Z,99661.88
2022-09-29T01:41:58.553Z,99647.78
2022-09-29T01:47:09.222Z,99653.81
2022-09-29T01:52:16.161Z,99651.22
2022-09-29T01:57:25.586Z,99654.50
2022-09-29T02:02:37.476Z,99661.34
2022-09-29T02:07:44.014Z,99659.47
2022-09-29T02:12:48.365Z,99664.50
2022-09-29T02:17:53.210Z,99661.72
2022-09-29T02:22:56.859Z,99665.03
2022-09-29T02:27:59.592Z,99674.50
2022-09-29T02:33:03.752Z,99666.56
2022-09-29T02:38:13.297Z,99668.38
2022-09-29T02:43:36.002Z,99675.34
2022-09-29T02:49:05.110Z,99676.09
2022-09-29T02:54:26.176Z,99674.16
2022-09-29T02:59:35.583Z,99678.13
2022-09-29T03:04:39.940Z,99680.69
2022-09-29T03:09:42.626Z,99677.91
2022-09-29T03:14:45.346Z,99681.13
2022-09-29T03:19:49.444Z,99678.59
2022-09-29T03:24:52.168Z,99695.28
2022-09-29T03:29:54.887Z,99691.75
2022-09-29T03:34:58.994Z,99689.91
2022-09-29T03:40:02.202Z,99688.91
2022-09-29T03:45:05.536Z,99684.41
2022-09-29T03:50:10.545Z,99682.56
2022-09-29T03:55:13.284Z,99687.66
2022-09-29T04:00:16.735Z,99687.47
2022-09-29T04:05:20.802Z,99689.13
2022-09-29T04:10:23.534Z,99697.72
2022-09-29T04:15:26.348Z,99699.38
2022-09-29T04:20:30.443Z,99699.16
2022-09-29T04:25:33.196Z,99699.16
2022-09-29T04:30:35.929Z,99711.22
2022-09-29T04:35:40.118Z,99702.50
2022-09-29T04:40:42.886Z,99705.13
2022-09-29T04:45:45.751Z,99712.88
2022-09-29T04:50:51.298Z,99714.44
2022-09-29T04:55:54.225Z,99721.31
2022-09-29T05:00:56.989Z,99715.22
2022-09-29T05:06:01.099Z,99720.47
2022-09-29T05:11:05.637Z,99721.22
2022-09-29T05:16:08.967Z,99729.16
2022-09-29T05:21:29.280Z,99733.38
2022-09-29T05:26:32.317Z,99727.19
2022-09-29T05:31:35.091Z,99727.19
2022-09-29T05:36:39.507Z,99735.03
2022-09-29T05:41:42.259Z,99743.97
2022-09-29T05:46:44.979Z,99739.59
2022-09-29T05:51:49.068Z,99739.75
2022-09-29T05:56:51.782Z,99752.09
2022-09-29T06:01:54.528Z,99753.94
2022-09-29T06:06:58.649Z,99753.28
2022-09-29T06:12:01.558Z,99749.28
2022-09-29T06:17:04.297Z,99754.72
2022-09-29T06:22:08.375Z,99758.41
2022-09-29T06:27:11.090Z,99760.59
2022-09-29T06:32:13.901Z,99763.50
2022-09-29T06:37:35.983Z,99765.59
2022-09-29T06:42:38.846Z,99769.59
2022-09-29T06:47:41.610Z,99784.03
2022-09-29T06:52:56.753Z,99783.81
2022-09-29T06:58:04.648Z,99773.97
2022-09-29T07:03:07.368Z,99779.94
2022-09-29T07:08:11.631Z,99778.06
2022-09-29T07:13:14.323Z,99786.63
2022-09-29T07:18:17.016Z,99788.25
2022-09-29T07:23:21.078Z,99796.84
2022-09-29T07:28:24.161Z,99792.41
2022-09-29T07:33:37.702Z,99793.34
2022-09-29T07:38:43.539Z,99794.50
2022-09-29T07:43:46.374Z,99799.06
2022-09-29T07:48:49.087Z,99791.22
2022-09-29T07:53:53.195Z,99799.19
2022-09-29T07:58:56.359Z,99805.97
2022-09-29T08:03:59.296Z,99803.28
2022-09-29T08:09:05.307Z,99812.94
2022-09-29T08:14:10.301Z,99814.72
2022-09-29T08:24:18.682Z,99822.19
2022-09-29T08:29:21.726Z,99822.97
2022-09-29T08:34:24.515Z,99829.16
2022-09-29T08:39:28.619Z,99828.06
2022-09-29T08:44:39.538Z,99832.28
2022-09-29T08:49:45.147Z,99834.75
2022-09-29T08:54:54.090Z,99838.78
2022-09-29T08:59:59.884Z,99847.31
2022-09-29T09:05:18.105Z,99850.78
2022-09-29T09:10:34.120Z,99844.13
2022-09-29T09:15:54.144Z,99860.50
2022-09-29T09:21:05.630Z,99852.13
2022-09-29T09:26:12.295Z,99855.19
2022-09-29T09:31:21.368Z,99858.41
2022-09-29T09:36:34.366Z,99852.91
2022-09-29T09:41:41.041Z,99856.59
2022-09-29T09:46:50.947Z,99851.78
2022-09-29T09:52:01.026Z,99858.25
2022-09-29T09:57:30.637Z,99860.78
2022-09-29T10:02:33.445Z,99862.03
2022-09-29T10:07:36.190Z,99870.25
2022-09-29T10:12:40.254Z,99868.88
2022-09-29T10:17:48.043Z,99871.03
2022-09-29T10:22:51.874Z,99864.09
2022-09-29T10:27:57.654Z,99874.03
2022-09-29T10:33:03.140Z,99872.66
2022-09-29T10:38:11.083Z,99869.63
2022-09-29T10:43:26.876Z,99869.00
2022-09-29T10:48:30.206Z,99873.59
2022-09-29T10:53:38.978Z,99875.38
2022-09-29T10:58:59.082Z,99882.75
2022-09-29T11:04:16.715Z,99889.00
2022-09-29T11:09:32.287Z,99894.50
2022-09-29T11:14:43.476Z,99895.50
2022-09-29T11:19:46.905Z,99905.53
2022-09-29T11:25:18.263Z,99905.50
2022-09-29T11:30:24.884Z,99907.50
2022-09-29T11:35:38.849Z,99910.34
2022-09-29T11:40:53.974Z,99918.44
2022-09-29T11:46:16.430Z,99913.34
2022-09-29T11:51:29.675Z,99917.22
2022-09-29T11:56:44.297Z,99913.81
2022-09-29T12:02:03.443Z,99914.81
2022-09-29T12:07:13.532Z,99921.97
2022-09-29T12:12:24.791Z,99920.06
2022-09-29T12:17:32.508Z,99926.13
2022-09-29T12:22:37.326Z,99918.94
2022-09-29T12:27:42.538Z,99916.13
2022-09-29T12:32:52.553Z,99922.84
2022-09-29T12:38:03.370Z,99930.59
2022-09-29T12:43:14.526Z,99948.03
2022-09-29T12:48:30.189Z,99942.44
2022-09-29T12:53:36.305Z,99932.97
2022-09-29T12:58:45.555Z,99946.44
2022-09-29T13:04:31.001Z,99944.63
2022-09-29T13:10:07.435Z,99953.34
2022-09-29T13:15:32.218Z,99957.66
2022-09-29T13:20:55.207Z,99953.19
2022-09-29T13:26:09.478Z,99960.31
2022-09-29T13:31:15.102Z,99957.53
2022-09-29T13:36:28.530Z,99961.00
2022-09-29T13:41:38.973Z,99971.44
2022-09-29T13:46:41.788Z,99964.13
2022-09-29T13:51:49.652Z,99966.59
2022-09-29T13:57:00.373Z,99965.91
2022-09-29T14:02:03.920Z,99971.34
2022-09-29T14:07:09.293Z,99977.56
2022-09-29T14:12:21.048Z,99976.72
2022-09-29T14:17:31.034Z,99985.47
2022-09-29T14:23:01.267Z,99985.47
2022-09-29T14:28:08.473Z,99999.66
2022-09-29T14:33:14.776Z,100000.25
2022-09-29T14:38:22.023Z,100006.25
2022-09-29T14:43:37.942Z,100011.44
2022-09-29T14:49:09.826Z,100011.25
2022-09-29T14:54:25.768Z,100020.84
2022-09-29T14:59:46.661Z,100026.94
2022-09-29T15:04:50.156Z,100037.22
2022-09-29T15:09:56.299Z,100029.94
2022-09-29T15:15:01.450Z,100033.44
2022-09-29T15:20:13.136Z,100039.69
2022-09-29T15:25:29.684Z,100043.19
2022-09-29T15:30:34.996Z,100048.41
2022-09-29T15:35:44.478Z,100048.34
2022-09-29T15:40:54.796Z,100056.16
2022-09-29T15:46:00.227Z,100055.94
2022-09-29T15:51:04.200Z,100061.94
2022-09-29T15:56:08.289Z,100066.16
2022-09-29T16:01:13.812Z,100075.72
2022-09-29T16:06:31.733Z,100076.44
2022-09-29T16:11:38.179Z,100096.50
2022-09-29T16:16:43.387Z,100098.94
2022-09-29T16:21:51.235Z,100104.03
2022-09-29T16:26:56.881Z,100121.44
2022-09-29T16:32:00.967Z,100126.34
2022-09-29T16:37:06.369Z,100133.06
2022-09-29T16:42:19.967Z,100137.16
2022-09-29T16:47:27.239Z,100134.13
2022-09-29T16:52:34.668Z,100134.63
2022-09-29T16:57:51.996Z,100142.28
2022-09-29T17:02:55.497Z,100154.34
2022-09-29T17:08:01.387Z,100160.19
2022-09-29T17:13:11.982Z,100165.97
2022-09-29T17:18:15.874Z,100170.94
2022-09-29T17:23:18.573Z,100180.25
2022-09-29T17:28:24.841Z,100184.19
2022-09-29T17:33:27.557Z,100189.97
2022-09-29T17:38:31.687Z,100194.06
2022-09-29T17:43:35.758Z,100192.75
2022-09-29T17:48:38.462Z,100198.47
2022-09-29T17:53:42.029Z,100205.09
2022-09-29T17:58:46.164Z,100213.34
2022-09-29T18:03:49.735Z,100217.22
2022-09-29T18:08:54.144Z,100222.03
2022-09-29T18:13:58.399Z,100219.78
2022-09-29T18:19:01.136Z,100222.78
2022-09-29T18:24:03.875Z,100223.34
2022-09-29T18:29:16.795Z,100231.00
2022-09-29T18:34:22.223Z,100237.81
2022-09-29T18:39:25.354Z,100244.72
2022-09-29T18:44:33.398Z,100248.19
2022-09-29T18:49:36.158Z,100256.09
2022-09-29T18:54:38.872Z,100259.66
2022-09-29T18:59:43.028Z,100271.06
2022-09-29T19:04:46.590Z,100266.63
2022-09-29T19:09:51.392Z,100271.06
2022-09-29T19:14:55.784Z,100282.38
2022-09-29T19:20:00.148Z,100296.38
2022-09-29T19:25:03.276Z,100302.50
2022-09-29T19:30:08.439Z,100303.28
2022-09-29T19:35:13.296Z,100311.13
2022-09-29T19:40:18.259Z,100304.00
2022-09-29T19:45:22.655Z,100310.81
2022-09-29T19:50:43.451Z,100317.03
2022-09-29T19:55:46.730Z,100317.75
2022-09-29T20:00:50.842Z,100323.00
2022-09-29T20:06:00.178Z,100326.63
2022-09-29T20:11:07.866Z,100328.47
2022-09-29T20:16:12.028Z,100342.56
2022-09-29T20:21:14.835Z,100358.25
2022-09-29T20:26:17.975Z,100369.13
2022-09-29T20:31:24.131Z,100370.50
2022-09-29T20:36:27.081Z,100373.75
2022-09-29T20:41:30.375Z,100368.56
2022-09-29T20:46:35.325Z,100369.44
2022-09-29T20:51:38.466Z,100379.16
2022-09-29T20:56:42.434Z,100381.72
2022-09-29T21:01:48.626Z,100391.41
2022-09-29T21:06:53.011Z,100386.00
2022-09-29T21:11:56.027Z,100405.31
2022-09-29T21:17:00.504Z,100397.16
2022-09-29T21:22:03.304Z,100395.16
2022-09-29T21:27:06.231Z,100398.59
2022-09-29T21:32:10.343Z,100399.47
2022-09-29T21:37:13.057Z,100398.53
2022-09-29T21:42:16.151Z,100402.03
2022-09-29T21:47:40.224Z,100401.00
2022-09-29T21:52:43.686Z,100408.69
2022-09-29T21:57:46.379Z,100403.16
2022-09-29T22:02:50.564Z,100413.56
2022-09-29T22:07:53.676Z,100409.94
2022-09-29T22:12:56.424Z,100414.25
2022-09-29T22:18:00.557Z,100418.38
2022-09-29T22:23:03.439Z,100414.53
2022-09-29T22:28:06.182Z,100423.97
2022-09-29T22:33:10.400Z,100416.69
2022-09-29T22:38:13.447Z,100418.22
2022-09-29T22:43:16.224Z,100424.44
2022-09-29T22:48:20.981Z,100426.31
2022-09-29T22:53:23.749Z,100432.84
2022-09-29T22:58:26.871Z,100432.31
2022-09-29T23:03:31.143Z,100436.91
2022-09-29T23:08:34.540Z,100444.81
2022-09-29T23:13:40.084Z,100450.69
2022-09-29T23:18:45.850Z,100450.41
2022-09-29T23:23:48.717Z,100454.56
2022-09-29T23:28:51.522Z,100464.28
2022-09-29T23:33:57.415Z,100454.50
2022-09-29T23:39:14.072Z,100462.25
2022-09-29T23:44:18.863Z,100463.97
2022-09-29T23:49:24.515Z,100466.59
2022-09-29T23:54:29.331Z,100468.47
2022-09-29T23:59:32.043Z,100473.81
